createdAt,value
2023-05-03T00:01:17.155Z,2.40
2023-05-03T00:03:45.702Z,2.53
2023-05-03T00:06:14.222Z,2.38
2023-05-03T00:08:41.694Z,2.25
2023-05-03T00:11:09.140Z,2.25
2023-05-03T00:13:36.188Z,2.55
2023-05-03T00:16:04.886Z,2.80
2023-05-03T00:18:32.119Z,2.50
2023-05-03T00:20:59.815Z,2.50
2023-05-03T00:23:28.303Z,2.50
2023-05-03T00:25:56.804Z,2.65
2023-05-03T00:28:24.462Z,2.45
2023-05-03T00:30:52.044Z,2.92
2023-05-03T00:33:19.074Z,2.58
2023-05-03T00:35:45.966Z,2.80
2023-05-03T00:38:14.308Z,2.60
2023-05-03T00:40:41.220Z,2.50
2023-05-03T00:43:10.714Z,2.60
2023-05-03T00:45:37.442Z,2.75
2023-05-03T00:48:04.243Z,2.90
2023-05-03T00:50:31.020Z,2.35
2023-05-03T00:52:58.448Z,2.58
2023-05-03T00:55:27.265Z,2.90
2023-05-03T00:57:53.982Z,3.13
2023-05-03T01:00:23.324Z,3.28
2023-05-03T01:02:50.393Z,2.53
2023-05-03T01:05:17.404Z,3.28
2023-05-03T01:08:03.891Z,2.85
2023-05-03T01:10:34.728Z,3.05
2023-05-03T01:13:19.479Z,2.35
2023-05-03T01:16:23.546Z,2.53
2023-05-03T01:18:53.126Z,2.97
2023-05-03T01:21:22.756Z,2.63
2023-05-03T01:24:03.668Z,2.28
2023-05-03T01:26:30.556Z,2.58
2023-05-03T01:28:57.448Z,2.55
2023-05-03T01:31:37.441Z,2.50
2023-05-03T01:34:34.088Z,2.38
2023-05-03T01:37:04.465Z,2.65
2023-05-03T01:39:48.834Z,2.60
2023-05-03T01:42:17.872Z,2.80
2023-05-03T01:44:45.623Z,2.67
2023-05-03T01:47:15.231Z,2.83
2023-05-03T01:49:42.113Z,2.30
2023-05-03T01:52:09.045Z,2.72
2023-05-03T01:54:35.854Z,2.45
2023-05-03T01:57:02.994Z,2.83
2023-05-03T01:59:29.945Z,2.45
2023-05-03T02:01:56.795Z,2.00
2023-05-03T02:04:23.678Z,2.80
2023-05-03T02:06:51.790Z,2.63
2023-05-03T02:09:18.827Z,2.80
2023-05-03T02:11:45.573Z,3.30
2023-05-03T02:14:12.682Z,3.28
2023-05-03T02:16:40.109Z,2.88
2023-05-03T02:19:08.672Z,2.90
2023-05-03T02:21:37.482Z,2.85
2023-05-03T02:24:04.522Z,3.03
2023-05-03T02:26:31.213Z,3.00
2023-05-03T02:28:58.307Z,3.00
2023-05-03T02:31:27.830Z,2.72
2023-05-03T02:33:56.656Z,3.33
2023-05-03T02:36:23.781Z,2.90
2023-05-03T02:38:50.926Z,2.97
2023-05-03T02:41:18.281Z,2.42
2023-05-03T02:43:45.063Z,2.83
2023-05-03T02:46:13.270Z,2.90
2023-05-03T02:48:40.064Z,2.90
2023-05-03T02:51:06.859Z,2.47
2023-05-03T02:53:33.552Z,3.00
2023-05-03T02:56:03.220Z,2.83
2023-05-03T02:58:31.361Z,2.95
2023-05-03T03:00:59.507Z,2.92
2023-05-03T03:03:29.473Z,3.40
2023-05-03T03:05:56.385Z,3.65
2023-05-03T03:08:23.845Z,3.35
2023-05-03T03:10:51.810Z,3.38
2023-05-03T03:13:18.556Z,3.38
2023-05-03T03:15:46.156Z,3.60
2023-05-03T03:18:13.058Z,3.22
2023-05-03T03:20:40.010Z,2.95
2023-05-03T03:23:07.245Z,3.45
2023-05-03T03:25:34.035Z,3.45
2023-05-03T03:28:00.802Z,3.60
2023-05-03T03:30:29.009Z,3.40
2023-05-03T03:33:07.483Z,4.05
2023-05-03T03:35:39.811Z,3.42
2023-05-03T03:38:07.014Z,2.90
2023-05-03T03:40:37.692Z,3.83
2023-05-03T03:43:08.455Z,3.67
2023-05-03T03:45:36.049Z,3.95
2023-05-03T03:48:05.959Z,3.25
2023-05-03T03:50:34.064Z,3.85
2023-05-03T03:53:01.577Z,3.92
2023-05-03T03:55:31.580Z,3.50
2023-05-03T03:57:58.420Z,3.58
2023-05-03T04:00:27.085Z,3.20
2023-05-03T04:03:05.974Z,3.58
2023-05-03T04:05:34.384Z,3.42
2023-05-03T04:08:01.391Z,3.33
2023-05-03T04:10:30.579Z,3.90
2023-05-03T04:12:57.356Z,3.63
2023-05-03T04:15:24.333Z,4.40
2023-05-03T04:17:52.435Z,3.65
2023-05-03T04:20:20.196Z,4.47
2023-05-03T04:22:49.904Z,3.60
2023-05-03T04:25:18.570Z,3.80
2023-05-03T04:27:53.709Z,3.38
2023-05-03T04:30:21.460Z,3.25
2023-05-03T04:32:54.397Z,3.67
2023-05-03T04:35:23.244Z,4.10
2023-05-03T04:37:50.035Z,3.25
2023-05-03T04:40:21.092Z,3.72
2023-05-03T04:42:57.388Z,3.67
2023-05-03T04:45:24.382Z,3.97
2023-05-03T04:47:51.269Z,3.83
2023-05-03T04:50:18.064Z,4.53
2023-05-03T04:52:48.690Z,3.92
2023-05-03T04:55:16.337Z,4.03
2023-05-03T04:57:43.428Z,2.97
2023-05-03T05:00:12.698Z,3.83
2023-05-03T05:02:44.159Z,4.07
2023-05-03T05:05:11.979Z,3.85
2023-05-03T05:07:38.714Z,3.72
2023-05-03T05:10:06.387Z,3.45
2023-05-03T05:12:33.287Z,3.42
2023-05-03T05:15:02.812Z,3.70
2023-05-03T05:17:30.503Z,3.83
2023-05-03T05:19:58.713Z,3.83
2023-05-03T05:22:28.151Z,4.47
2023-05-03T05:24:58.784Z,4.15
2023-05-03T05:27:27.219Z,4.65
2023-05-03T05:29:56.096Z,3.70
2023-05-03T05:32:23.818Z,4.50
2023-05-03T05:34:55.278Z,4.35
2023-05-03T05:37:24.525Z,3.85
2023-05-03T05:39:51.704Z,4.85
2023-05-03T05:42:21.387Z,4.38
2023-05-03T05:44:48.078Z,4.25
2023-05-03T05:47:15.057Z,3.83
2023-05-03T05:49:43.788Z,3.78
2023-05-03T05:52:11.890Z,4.25
2023-05-03T05:54:39.715Z,4.43
2023-05-03T05:57:06.423Z,4.22
2023-05-03T05:59:34.150Z,4.40
2023-05-03T06:02:01.254Z,4.90
2023-05-03T06:04:30.414Z,5.35
2023-05-03T06:06:57.989Z,4.82
2023-05-03T06:09:25.309Z,4.68
2023-05-03T06:11:56.496Z,4.93
2023-05-03T06:14:25.433Z,5.70
2023-05-03T06:16:52.978Z,4.53
2023-05-03T06:19:20.356Z,4.20
2023-05-03T06:21:47.079Z,5.03
2023-05-03T06:24:20.848Z,5.32
2023-05-03T06:26:49.881Z,4.43
2023-05-03T06:29:17.546Z,4.90
2023-05-03T06:31:45.130Z,4.88
2023-05-03T06:34:12.995Z,4.13
2023-05-03T06:36:41.885Z,5.45
2023-05-03T06:39:09.509Z,4.93
2023-05-03T06:41:36.704Z,4.82
2023-05-03T06:44:04.204Z,4.70
2023-05-03T06:46:30.934Z,4.53
2023-05-03T06:48:57.896Z,4.72
2023-05-03T06:51:30.125Z,4.97
2023-05-03T06:54:01.949Z,4.32
2023-05-03T06:56:28.708Z,4.63
2023-05-03T06:58:55.425Z,4.38
2023-05-03T07:01:23.306Z,3.65
2023-05-03T07:03:50.202Z,4.03
2023-05-03T07:06:18.300Z,4.22
2023-05-03T07:08:45.247Z,4.18
2023-05-03T07:11:11.915Z,4.00
2023-05-03T07:13:38.728Z,3.85
2023-05-03T07:16:05.757Z,3.97
2023-05-03T07:18:32.654Z,4.07
2023-05-03T07:21:01.596Z,3.50
2023-05-03T07:23:28.288Z,4.13
2023-05-03T07:25:55.540Z,3.80
2023-05-03T07:28:22.534Z,3.20
2023-05-03T07:30:51.320Z,2.28
2023-05-03T07:33:18.406Z,2.10
2023-05-03T07:35:48.349Z,1.95
2023-05-03T07:38:15.377Z,1.90
2023-05-03T07:40:42.212Z,2.20
2023-05-03T07:43:10.245Z,2.17
2023-05-03T07:45:37.510Z,1.90
2023-05-03T07:48:04.969Z,1.83
2023-05-03T07:50:32.007Z,2.20
2023-05-03T07:52:58.774Z,2.00
2023-05-03T07:55:25.656Z,1.83
2023-05-03T07:57:53.102Z,2.00
2023-05-03T08:00:20.117Z,1.80
2023-05-03T08:02:46.915Z,1.40
2023-05-03T08:05:14.833Z,1.52
2023-05-03T08:07:42.123Z,1.50
2023-05-03T08:10:10.780Z,1.15
2023-05-03T08:12:37.550Z,2.15
2023-05-03T08:15:07.276Z,1.83
2023-05-03T08:17:41.097Z,2.35
2023-05-03T08:20:08.853Z,1.90
2023-05-03T08:22:37.469Z,1.75
2023-05-03T08:25:04.914Z,2.10
2023-05-03T08:27:32.262Z,2.20
2023-05-03T08:30:00.297Z,1.67
2023-05-03T08:32:28.064Z,1.70
2023-05-03T08:34:55.917Z,1.70
2023-05-03T08:37:23.432Z,2.05
2023-05-03T08:39:50.154Z,2.30
2023-05-03T08:42:17.151Z,2.00
2023-05-03T08:44:48.653Z,2.30
2023-05-03T08:47:19.498Z,2.15
2023-05-03T08:49:47.271Z,1.95
2023-05-03T08:52:16.590Z,1.98
2023-05-03T08:54:44.262Z,2.03
2023-05-03T08:57:14.914Z,2.10
2023-05-03T08:59:58.495Z,2.38
2023-05-03T09:02:25.337Z,2.53
2023-05-03T09:04:52.590Z,2.22
2023-05-03T09:07:20.450Z,2.25
2023-05-03T09:09:47.691Z,1.80
2023-05-03T09:12:35.148Z,2.20
2023-05-03T09:15:03.581Z,2.42
2023-05-03T09:17:30.601Z,2.00
2023-05-03T09:19:58.704Z,2.20
2023-05-03T09:22:31.842Z,2.63
2023-05-03T09:25:00.399Z,2.40
2023-05-03T09:27:27.905Z,2.47
2023-05-03T09:29:55.221Z,2.28
2023-05-03T09:32:23.036Z,2.33
2023-05-03T09:34:49.794Z,2.30
2023-05-03T09:37:16.660Z,2.33
2023-05-03T09:39:45.879Z,2.42
2023-05-03T09:42:17.303Z,2.92
2023-05-03T09:44:49.117Z,2.40
2023-05-03T09:47:16.008Z,2.73
2023-05-03T09:49:43.821Z,2.55
2023-05-03T09:52:11.270Z,2.70
2023-05-03T09:54:38.657Z,2.30
2023-05-03T09:57:07.999Z,2.50
2023-05-03T09:59:36.651Z,2.08
2023-05-03T10:02:07.454Z,2.40
2023-05-03T10:04:56.754Z,2.42
2023-05-03T10:07:24.966Z,2.60
2023-05-03T10:09:51.925Z,2.05
2023-05-03T10:12:20.218Z,2.35
2023-05-03T10:14:48.240Z,1.85
2023-05-03T10:17:39.441Z,1.80
2023-05-03T10:20:24.467Z,2.45
2023-05-03T10:23:06.492Z,2.17
2023-05-03T10:25:35.975Z,2.22
2023-05-03T10:28:04.565Z,1.90
2023-05-03T10:30:33.090Z,2.47
2023-05-03T10:33:20.453Z,1.90
2023-05-03T10:35:54.422Z,2.08
2023-05-03T10:38:22.843Z,2.47
2023-05-03T10:40:50.063Z,2.50
2023-05-03T10:43:34.645Z,2.10
2023-05-03T10:46:05.975Z,2.25
2023-05-03T10:48:33.720Z,2.35
2023-05-03T10:51:32.921Z,1.98
2023-05-03T10:54:00.168Z,2.30
2023-05-03T10:56:26.928Z,2.10
2023-05-03T10:58:58.761Z,1.98
2023-05-03T11:01:27.238Z,2.70
2023-05-03T11:04:20.632Z,2.20
2023-05-03T11:06:49.569Z,2.30
2023-05-03T11:09:17.134Z,2.00
2023-05-03T11:11:44.104Z,2.38
2023-05-03T11:14:12.665Z,2.65
2023-05-03T11:16:47.249Z,2.65
2023-05-03T11:19:14.957Z,2.63
2023-05-03T11:21:43.464Z,2.05
2023-05-03T11:24:10.362Z,2.33
2023-05-03T11:26:40.053Z,2.00
2023-05-03T11:29:10.359Z,2.05
2023-05-03T11:31:37.163Z,2.20
2023-05-03T11:34:04.078Z,2.15
2023-05-03T11:36:31.119Z,2.05
2023-05-03T11:38:57.899Z,2.72
2023-05-03T11:41:26.545Z,2.10
2023-05-03T11:44:04.018Z,2.40
2023-05-03T11:46:40.358Z,2.30
2023-05-03T11:49:07.786Z,2.35
2023-05-03T11:51:34.967Z,2.55
2023-05-03T11:54:17.029Z,2.42
2023-05-03T11:56:52.779Z,2.45
2023-05-03T11:59:20.044Z,2.90
2023-05-03T12:01:49.498Z,3.10
2023-05-03T12:04:17.316Z,2.95
2023-05-03T12:06:52.774Z,2.50
2023-05-03T12:09:22.530Z,2.58
2023-05-03T12:11:51.828Z,3.15
2023-05-03T12:14:19.891Z,3.65
2023-05-03T12:16:50.883Z,2.80
2023-05-03T12:19:34.218Z,2.60
2023-05-03T12:22:17.984Z,2.65
2023-05-03T12:24:49.842Z,2.60
2023-05-03T12:27:18.988Z,2.85
2023-05-03T12:29:47.349Z,2.70
2023-05-03T12:32:14.967Z,3.10
2023-05-03T12:34:42.790Z,2.97
2023-05-03T12:37:11.665Z,3.03
2023-05-03T12:39:40.068Z,2.95
2023-05-03T12:42:08.901Z,3.33
2023-05-03T12:44:41.888Z,3.92
2023-05-03T12:47:10.334Z,2.72
2023-05-03T12:49:39.012Z,2.75
2023-05-03T12:52:35.502Z,3.38
2023-05-03T12:54:55.702Z,3.53
2023-05-03T12:57:24.320Z,3.20
2023-05-03T13:00:02.235Z,2.83
2023-05-03T13:05:01.589Z,3.15
2023-05-03T13:07:31.741Z,3.42
2023-05-03T13:12:30.590Z,3.92
2023-05-03T13:14:57.902Z,4.05
2023-05-03T13:17:24.965Z,2.95
2023-05-03T13:19:53.105Z,3.10
2023-05-03T13:22:19.872Z,3.35
2023-05-03T13:24:47.576Z,3.35
2023-05-03T13:27:14.908Z,3.40
2023-05-03T13:29:42.079Z,3.35
2023-05-03T13:32:09.616Z,3.00
2023-05-03T13:34:36.963Z,3.25
2023-05-03T13:37:06.584Z,3.67
2023-05-03T13:39:33.286Z,3.90
2023-05-03T13:42:00.325Z,3.13
2023-05-03T13:44:27.027Z,3.67
2023-05-03T13:46:55.521Z,3.92
2023-05-03T13:49:22.279Z,3.28
2023-05-03T13:51:49.087Z,4.00
2023-05-03T13:54:15.889Z,3.25
2023-05-03T13:56:43.040Z,3.88
2023-05-03T13:59:13.694Z,3.95
2023-05-03T14:01:41.112Z,3.42
2023-05-03T14:04:08.195Z,3.65
2023-05-03T14:06:35.018Z,3.70
2023-05-03T14:09:02.701Z,3.45
2023-05-03T14:11:30.755Z,3.03
2023-05-03T14:13:58.770Z,3.65
2023-05-03T14:16:40.122Z,3.47
2023-05-03T14:19:10.446Z,3.60
2023-05-03T14:21:37.741Z,3.50
2023-05-03T14:24:05.011Z,3.30
2023-05-03T14:26:33.958Z,3.85
2023-05-03T14:29:01.092Z,3.42
2023-05-03T14:31:27.948Z,3.75
2023-05-03T14:33:55.305Z,3.53
2023-05-03T14:36:22.194Z,3.50
2023-05-03T14:38:48.926Z,4.38
2023-05-03T14:41:15.597Z,3.80
2023-05-03T14:43:42.332Z,3.92
2023-05-03T14:46:09.835Z,3.53
2023-05-03T14:48:37.846Z,3.50
2023-05-03T14:51:05.107Z,3.70
2023-05-03T14:53:32.302Z,3.33
2023-05-03T14:55:59.335Z,3.00
2023-05-03T14:58:26.245Z,3.58
2023-05-03T15:00:53.124Z,3.30
2023-05-03T15:03:19.893Z,3.35
2023-05-03T15:05:51.029Z,2.97
2023-05-03T15:08:19.621Z,3.63
2023-05-03T15:10:47.700Z,3.47
2023-05-03T15:13:16.221Z,3.00
2023-05-03T15:15:43.760Z,3.33
2023-05-03T15:18:11.533Z,3.47
2023-05-03T15:20:39.094Z,3.50
2023-05-03T15:23:06.615Z,3.08
2023-05-03T15:25:33.317Z,3.30
2023-05-03T15:28:03.700Z,2.72
2023-05-03T15:30:32.547Z,3.28
2023-05-03T15:32:59.569Z,3.33
2023-05-03T15:35:26.454Z,3.90
2023-05-03T15:37:53.231Z,3.42
2023-05-03T15:40:23.668Z,3.13
2023-05-03T15:42:52.132Z,3.50
2023-05-03T15:45:19.256Z,2.78
2023-05-03T15:47:46.394Z,3.47
2023-05-03T15:50:13.956Z,3.13
2023-05-03T15:52:41.174Z,3.35
2023-05-03T15:55:09.339Z,3.28
2023-05-03T15:57:36.219Z,3.53
2023-05-03T16:00:13.179Z,3.20
2023-05-03T16:02:40.705Z,3.45
2023-05-03T16:05:08.145Z,3.05
2023-05-03T16:07:35.038Z,3.47
2023-05-03T16:10:02.018Z,3.25
2023-05-03T16:12:28.985Z,3.50
2023-05-03T16:14:55.939Z,4.10
2023-05-03T16:17:23.100Z,3.30
2023-05-03T16:19:49.826Z,3.92
2023-05-03T16:22:17.416Z,3.17
2023-05-03T16:24:44.219Z,3.50
2023-05-03T16:27:11.146Z,3.90
2023-05-03T16:29:40.182Z,3.00
2023-05-03T16:32:09.729Z,4.20
2023-05-03T16:34:40.271Z,3.33
2023-05-03T16:37:07.062Z,3.58
2023-05-03T16:39:33.986Z,3.28
2023-05-03T16:42:01.060Z,3.33
2023-05-03T16:44:28.089Z,4.28
2023-05-03T16:46:57.642Z,3.60
2023-05-03T16:49:24.420Z,3.08
2023-05-03T16:51:51.450Z,3.72
2023-05-03T16:54:18.229Z,3.13
2023-05-03T16:56:46.588Z,3.22
2023-05-03T16:59:13.688Z,3.22
2023-05-03T17:01:42.771Z,3.40
2023-05-03T17:04:09.633Z,3.38
2023-05-03T17:06:36.860Z,3.58
2023-05-03T17:09:06.860Z,3.08
2023-05-03T17:11:38.846Z,3.90
2023-05-03T17:14:05.817Z,3.78
2023-05-03T17:16:32.572Z,3.42
2023-05-03T17:18:59.389Z,3.55
2023-05-03T17:21:26.947Z,3.80
2023-05-03T17:23:53.780Z,3.60
2023-05-03T17:26:21.351Z,3.70
2023-05-03T17:28:48.540Z,3.65
2023-05-03T17:31:15.422Z,3.30
2023-05-03T17:33:42.107Z,3.25
2023-05-03T17:36:08.779Z,3.88
2023-05-03T17:38:36.140Z,3.70
2023-05-03T17:41:07.244Z,3.47
2023-05-03T17:43:35.616Z,3.53
2023-05-03T17:46:11.203Z,3.55
2023-05-03T17:48:39.862Z,3.22
2023-05-03T17:51:07.817Z,3.85
2023-05-03T17:53:34.844Z,3.78
2023-05-03T17:56:01.568Z,3.00
2023-05-03T17:58:28.340Z,3.60
2023-05-03T18:00:57.011Z,4.03
2023-05-03T18:03:25.688Z,3.80
2023-05-03T18:05:53.102Z,3.70
2023-05-03T18:08:19.863Z,4.78
2023-05-03T18:10:47.018Z,4.50
2023-05-03T18:13:14.903Z,3.65
2023-05-03T18:15:42.286Z,4.38
2023-05-03T18:18:09.297Z,3.92
2023-05-03T18:20:36.110Z,4.22
2023-05-03T18:23:03.668Z,4.38
2023-05-03T18:25:30.387Z,4.43
2023-05-03T18:27:57.502Z,4.28
2023-05-03T18:30:29.029Z,4.40
2023-05-03T18:32:56.215Z,4.30
2023-05-03T18:35:24.807Z,4.35
2023-05-03T18:37:52.840Z,4.07
2023-05-03T18:40:19.685Z,4.07
2023-05-03T18:42:46.390Z,4.13
2023-05-03T18:45:15.085Z,4.50
2023-05-03T18:47:42.164Z,4.07
2023-05-03T18:50:09.320Z,4.18
2023-05-03T18:52:36.039Z,4.63
2023-05-03T18:55:02.862Z,3.97
2023-05-03T18:57:32.725Z,4.20
2023-05-03T19:00:01.010Z,5.05
2023-05-03T19:02:31.186Z,4.57
2023-05-03T19:04:58.870Z,4.63
2023-05-03T19:07:25.803Z,5.00
2023-05-03T19:09:57.086Z,4.65
2023-05-03T19:12:23.999Z,4.50
2023-05-03T19:14:50.720Z,4.88
2023-05-03T19:17:17.394Z,5.05
2023-05-03T19:19:44.389Z,5.47
2023-05-03T19:22:11.032Z,4.72
2023-05-03T19:24:37.900Z,4.97
2023-05-03T19:27:04.721Z,4.72
2023-05-03T19:29:32.357Z,5.15
2023-05-03T19:31:59.138Z,4.35
2023-05-03T19:34:28.354Z,4.55
2023-05-03T19:36:55.635Z,5.18
2023-05-03T19:39:24.588Z,5.28
2023-05-03T19:41:53.205Z,4.82
2023-05-03T19:44:19.976Z,4.80
2023-05-03T19:46:46.837Z,4.47
2023-05-03T19:49:13.601Z,5.30
2023-05-03T19:51:43.313Z,4.75
2023-05-03T19:54:10.411Z,4.97
2023-05-03T19:56:37.344Z,5.38
2023-05-03T19:59:08.191Z,4.60
2023-05-03T20:01:35.008Z,5.05
2023-05-03T20:04:13.257Z,4.88
2023-05-03T20:06:51.780Z,4.63
2023-05-03T20:12:13.642Z,4.63
2023-05-03T20:14:56.641Z,4.78
2023-05-03T20:17:32.441Z,5.47
2023-05-03T20:20:14.629Z,5.07
2023-05-03T20:22:42.218Z,4.88
2023-05-03T20:25:12.066Z,4.78
2023-05-03T20:27:40.144Z,4.38
2023-05-03T20:30:10.567Z,4.90
2023-05-03T20:32:43.279Z,4.88
2023-05-03T20:35:13.636Z,4.80
2023-05-03T20:37:52.078Z,4.25
2023-05-03T20:40:30.889Z,4.47
2023-05-03T20:42:57.722Z,4.20
2023-05-03T20:45:24.632Z,4.35
2023-05-03T20:47:51.530Z,5.05
2023-05-03T20:50:18.839Z,5.18
2023-05-03T20:52:48.043Z,4.85
2023-05-03T20:55:15.035Z,5.30
2023-05-03T20:57:42.168Z,4.75
2023-05-03T21:00:13.204Z,4.90
2023-05-03T21:02:40.000Z,4.28
2023-05-03T21:05:06.978Z,4.90
2023-05-03T21:07:33.737Z,5.00
2023-05-03T21:10:00.569Z,5.05
2023-05-03T21:12:28.217Z,4.88
2023-05-03T21:14:56.262Z,4.70
2023-05-03T21:17:23.115Z,5.18
2023-05-03T21:19:49.804Z,4.88
2023-05-03T21:22:16.955Z,4.68
2023-05-03T21:24:43.746Z,4.32
2023-05-03T21:27:10.449Z,4.88
2023-05-03T21:29:37.183Z,4.25
2023-05-03T21:32:04.726Z,5.25
2023-05-03T21:34:31.385Z,4.50
2023-05-03T21:36:58.074Z,4.50
2023-05-03T21:39:28.046Z,4.78
2023-05-03T21:41:54.861Z,4.90
2023-05-03T21:44:21.560Z,4.53
2023-05-03T21:46:49.422Z,4.55
2023-05-03T21:49:16.688Z,4.60
2023-05-03T21:51:43.476Z,4.10
2023-05-03T21:54:10.187Z,4.40
2023-05-03T21:56:36.987Z,4.00
2023-05-03T21:59:03.912Z,5.03
2023-05-03T22:01:43.457Z,4.30
2023-05-03T22:04:14.178Z,4.43
2023-05-03T22:06:40.888Z,3.92
2023-05-03T22:09:10.927Z,3.75
2023-05-03T22:11:37.638Z,4.55
2023-05-03T22:14:08.481Z,3.92
2023-05-03T22:16:42.078Z,4.15
2023-05-03T22:19:09.500Z,3.95
2023-05-03T22:21:36.421Z,4.18
2023-05-03T22:24:05.010Z,3.95
2023-05-03T22:26:33.366Z,4.35
2023-05-03T22:29:00.067Z,3.95
2023-05-03T22:31:30.047Z,4.00
2023-05-03T22:33:56.991Z,3.95
2023-05-03T22:36:23.795Z,4.28
2023-05-03T22:38:55.085Z,3.85
2023-05-03T22:41:22.192Z,4.05
2023-05-03T22:43:49.032Z,4.03
2023-05-03T22:46:15.895Z,3.63
2023-05-03T22:48:42.710Z,4.28
2023-05-03T22:51:09.481Z,3.97
2023-05-03T22:53:36.168Z,3.38
2023-05-03T22:56:06.713Z,4.03
2023-05-03T22:58:36.709Z,3.90
2023-05-03T23:01:03.483Z,3.83
2023-05-03T23:03:30.308Z,3.75
2023-05-03T23:05:57.148Z,4.03
2023-05-03T23:08:23.920Z,3.80
2023-05-03T23:10:50.929Z,3.47
2023-05-03T23:13:18.039Z,4.15
2023-05-03T23:15:45.182Z,3.75
2023-05-03T23:18:12.509Z,3.70
2023-05-03T23:20:39.260Z,4.07
2023-05-03T23:23:06.026Z,4.35
2023-05-03T23:25:33.031Z,4.28
2023-05-03T23:28:00.916Z,4.45
2023-05-03T23:30:28.355Z,4.07
2023-05-03T23:32:56.370Z,4.47
2023-05-03T23:35:24.811Z,4.00
2023-05-03T23:37:51.697Z,4.47
2023-05-03T23:40:18.697Z,4.40
2023-05-03T23:42:46.679Z,4.15
2023-05-03T23:45:13.447Z,4.60
2023-05-03T23:47:40.191Z,4.63
2023-05-03T23:50:07.741Z,5.00
2023-05-03T23:52:35.082Z,4.95
2023-05-03T23:55:02.338Z,4.22
2023-05-03T23:57:30.250Z,4.55
2023-05-03T23:59:57.668Z,4.35
